Time;durP1;ratioP1;P1;durP2;ratioP2;P2;SDS_P1;SDS_P2;PMS_P1;PMS_P2;Temp;Humidity;BMP_temperature;BMP_pressure;BME280_temperature;BME280_humidity;BME280_pressure;Samples;Min_cycle;Max_cycle;Signal;HPM_P1;HPM_P2
2022/03/22 00:04:02;;;;;;;36.63;24.20;;;;;;;4.92;43.61;95768.69;787173;75;26229;-80
2022/03/22 00:05:08;;;;;;;40.70;24.72;;;;;;;4.90;43.54;95767.32;809072;73;26223;-80
2022/03/22 00:06:15;;;;;;;37.58;23.85;;;;;;;4.91;43.66;95774.12;786787;75;26287;-80
2022/03/22 00:07:20;;;;;;;36.35;23.05;;;;;;;4.91;43.73;95770.22;807069;73;26220;-80
2022/03/22 00:08:26;;;;;;;31.75;22.65;;;;;;;4.91;43.63;95767.62;787998;75;26236;-80
2022/03/22 00:09:33;;;;;;;33.20;23.12;;;;;;;4.92;43.71;95770.50;791919;75;26216;-81
2022/03/22 00:13:38;;;;;;;34.73;23.57;;;;;;;4.96;43.82;95759.94;792970;72;24636;-80
2022/03/22 00:14:44;;;;;;;35.68;23.52;;;;;;;4.97;43.78;95759.73;790933;74;26305;-79
2022/03/22 00:15:55;;;;;;;35.50;23.92;;;;;;;4.99;43.85;95762.91;800958;74;26225;-79
2022/03/22 00:16:59;;;;;;;36.63;23.47;;;;;;;5.00;43.77;95764.48;796930;74;26287;-79
2022/03/22 00:18:05;;;;;;;30.27;22.45;;;;;;;5.01;43.69;95762.69;797939;73;26229;-79
2022/03/22 00:19:10;;;;;;;32.95;21.60;;;;;;;5.02;43.62;95762.45;811643;73;26282;-79
2022/03/22 00:23:01;;;;;;;33.75;22.98;;;;;;;5.03;43.59;95758.06;782142;74;26234;-80
2022/03/22 00:24:06;;;;;;;33.55;21.85;;;;;;;5.04;43.40;95760.93;769059;76;24271;-80
2022/03/22 00:25:11;;;;;;;32.73;21.55;;;;;;;5.06;43.40;95762.02;771955;76;26239;-79
2022/03/22 00:26:21;;;;;;;31.73;21.35;;;;;;;5.07;43.39;95756.60;777109;76;26248;-80
2022/03/22 00:27:25;;;;;;;28.10;20.20;;;;;;;5.09;43.30;95755.87;773589;76;26244;-80
2022/03/22 00:28:37;;;;;;;38.42;22.60;;;;;;;5.11;43.22;95747.83;776980;76;26728;-80
2022/03/22 00:34:00;;;;;;;32.90;22.25;;;;;;;5.16;42.94;95746.67;784454;72;26355;-80
2022/03/22 00:35:04;;;;;;;29.27;19.62;;;;;;;5.15;42.90;95752.88;773177;77;26249;-80
2022/03/22 00:36:10;;;;;;;32.00;21.77;;;;;;;5.15;42.89;95763.28;784353;76;26200;-80
2022/03/22 00:37:17;;;;;;;35.95;22.05;;;;;;;5.14;42.90;95753.39;780250;76;26242;-80
2022/03/22 00:38:39;;;;;;;28.73;20.75;;;;;;;5.16;42.84;95755.77;786400;75;26296;-79
2022/03/22 00:43:20;;;;;;;30.95;20.92;;;;;;;5.18;42.62;95750.63;763162;77;24635;-79
2022/03/22 00:44:26;;;;;;;31.40;20.40;;;;;;;5.20;42.58;95746.52;763052;78;26381;-79
2022/03/22 00:45:34;;;;;;;31.87;20.50;;;;;;;5.21;42.45;95747.59;763025;78;26257;-81
2022/03/22 00:46:41;;;;;;;28.05;18.70;;;;;;;5.23;42.26;95748.66;762886;78;26721;-79
2022/03/22 00:47:47;;;;;;;25.95;18.52;;;;;;;5.25;42.12;95744.53;761432;76;26253;-80
2022/03/22 00:48:53;;;;;;;27.90;19.77;;;;;;;5.26;42.06;95750.04;776311;75;26279;-80
2022/03/22 00:52:12;;;;;;;28.27;18.52;;;;;;;5.30;41.98;95740.26;768730;73;26365;-80
2022/03/22 00:53:18;;;;;;;28.60;18.90;;;;;;;5.31;41.84;95741.86;760304;78;26269;-79
2022/03/22 00:54:23;;;;;;;26.37;18.90;;;;;;;5.33;41.65;95742.91;760333;78;26265;-80
2022/03/22 00:55:27;;;;;;;28.30;19.00;;;;;;;5.35;41.54;95740.39;756863;78;26268;-79
2022/03/22 00:56:37;;;;;;;26.20;18.35;;;;;;;5.37;41.44;95733.64;760214;78;26249;-78
2022/03/22 00:57:43;;;;;;;24.15;16.95;;;;;;;5.39;41.27;95741.53;749570;79;26322;-79
2022/03/22 01:00:01;;;;;;;20.20;16.20;;;;;;;5.41;41.05;95741.29;755930;77;26340;-80
2022/03/22 01:04:43;;;;;;;21.62;16.87;;;;;;;5.50;40.58;95743.08;779311;75;26305;-79
2022/03/22 01:05:50;;;;;;;25.57;17.00;;;;;;;5.52;40.46;95739.74;779439;76;26804;-80
2022/03/22 01:06:55;;;;;;;22.48;15.88;;;;;;;5.53;40.37;95741.31;779476;76;26682;-80
2022/03/22 01:08:12;;;;;;;23.75;16.10;;;;;;;5.55;40.31;95737.46;779453;76;26237;-79
2022/03/22 01:09:32;;;;;;;;;;;;;;;;;;;;;
2022/03/22 01:13:07;;;;;;;27.27;17.30;;;;;;;5.59;39.99;95736.52;753110;77;26332;-79
2022/03/22 01:14:11;;;;;;;22.17;14.95;;;;;;;5.60;40.10;95731.60;757404;77;26824;-80
2022/03/22 01:15:18;;;;;;;26.52;17.98;;;;;;;5.61;40.15;95734.48;755634;78;26751;-80
2022/03/22 01:16:23;;;;;;;26.85;18.30;;;;;;;5.63;40.25;95728.02;767895;75;26666;-80
2022/03/22 01:17:31;;;;;;;30.52;20.45;;;;;;;5.63;40.22;95726.72;781390;76;26303;-79
2022/03/22 01:18:38;;;;;;;38.10;22.25;;;;;;;5.67;40.11;95728.88;780294;76;26662;-79
2022/03/22 01:21:59;;;;;;;23.67;16.02;;;;;;;5.68;40.12;95730.45;776736;75;26245;-80
2022/03/22 01:27:58;;;;;;;19.75;14.63;;;;;;;5.69;39.77;95724.24;768299;74;26281;-80
2022/03/22 01:29:04;;;;;;;25.77;16.12;;;;;;;5.71;39.62;95720.91;776855;76;26234;-80
2022/03/22 01:32:22;;;;;;;22.13;15.10;;;;;;;5.72;39.60;95718.08;786658;72;26322;-80
2022/03/22 01:33:26;;;;;;;23.00;15.95;;;;;;;5.75;39.63;95715.53;795301;74;26230;-80
2022/03/22 01:34:31;;;;;;;22.48;16.20;;;;;;;5.76;39.68;95714.01;791113;74;26705;-80
2022/03/22 01:35:36;;;;;;;22.58;14.78;;;;;;;5.78;39.60;95713.78;791549;74;26641;-80
2022/03/22 01:36:42;;;;;;;21.62;15.03;;;;;;;5.77;39.56;95711.67;795135;74;26691;-79
2022/03/22 01:37:48;;;;;;;20.85;15.03;;;;;;;5.79;39.45;95709.63;795043;74;26235;-80
2022/03/22 01:38:52;;;;;;;24.00;16.50;;;;;;;5.80;39.44;95709.14;795108;74;26246;-79
2022/03/22 01:42:13;;;;;;;21.40;15.85;;;;;;;5.82;39.55;95711.80;776964;75;26245;-80
2022/03/22 01:43:21;;;;;;;24.23;16.32;;;;;;;5.85;39.73;95716.27;778128;76;26319;-80
2022/03/22 01:44:32;;;;;;;21.68;15.72;;;;;;;5.83;39.83;95710.77;778695;76;26233;-79
2022/03/22 01:45:36;;;;;;;21.73;15.93;;;;;;;5.84;39.84;95710.27;778338;76;26229;-80
2022/03/22 01:46:44;;;;;;;23.90;16.30;;;;;;;5.83;39.93;95713.88;779354;76;26225;-79
2022/03/22 01:47:50;;;;;;;25.17;17.25;;;;;;;5.83;39.97;95715.19;778918;76;26620;-81
2022/03/22 01:48:58;;;;;;;21.40;15.38;;;;;;;5.81;39.77;95712.80;779055;76;26225;-80
2022/03/22 01:53:43;;;;;;;23.25;15.58;;;;;;;5.80;39.97;95699.52;796574;73;26194;-81
2022/03/22 01:54:50;;;;;;;22.65;15.80;;;;;;;5.81;40.06;95708.11;795704;74;26218;-78
2022/03/22 01:55:55;;;;;;;24.32;16.80;;;;;;;5.82;40.14;95708.41;794857;74;26222;-80
2022/03/22 01:57:07;;;;;;;25.50;16.75;;;;;;;5.81;40.23;95702.38;794897;74;26223;-80
2022/03/22 01:58:12;;;;;;;23.67;16.70;;;;;;;5.82;40.29;95707.11;794943;74;26725;-79
2022/03/22 02:06:15;;;;;;;24.30;16.85;;;;;;;5.77;40.62;95704.38;768237;77;26742;-80
2022/03/22 02:07:21;;;;;;;25.17;17.75;;;;;;;5.76;40.75;95705.41;785472;75;26235;-78
2022/03/22 02:08:28;;;;;;;28.10;17.57;;;;;;;5.76;40.83;95710.62;790800;75;26227;-80
2022/03/22 02:12:32;;;;;;;23.80;15.85;;;;;;;5.76;40.88;95702.80;800700;73;26253;-79
2022/03/22 02:16:48;;;;;;;26.68;17.15;;;;;;;5.75;41.04;95698.08;810553;70;26355;-80
2022/03/22 02:17:53;;;;;;;22.60;15.43;;;;;;;5.75;41.15;95692.88;809518;73;26203;-79
2022/03/22 02:19:00;;;;;;;23.47;16.52;;;;;;;5.76;41.08;95698.38;809480;73;26737;-80
2022/03/22 02:20:26;;;;;;;21.57;14.60;;;;;;;5.76;40.83;95699.69;809688;73;26210;-80
2022/03/22 02:21:34;;;;;;;22.75;15.80;;;;;;;5.76;40.81;95700.98;772644;76;26256;-80
2022/03/22 02:22:41;;;;;;;25.20;16.30;;;;;;;5.78;40.98;95700.77;806590;73;26218;-82
2022/03/22 02:23:51;;;;;;;24.80;16.67;;;;;;;5.77;41.06;95696.56;806763;73;26234;-81
2022/03/22 02:24:56;;;;;;;25.45;16.32;;;;;;;5.80;40.88;95692.22;806541;73;26229;-80
2022/03/22 02:26:00;;;;;;;25.02;17.40;;;;;;;5.80;40.79;95685.70;806557;73;26230;-80
2022/03/22 02:27:05;;;;;;;22.75;16.52;;;;;;;5.81;40.74;95691.19;806220;73;26698;-78
2022/03/22 02:28:11;;;;;;;27.35;16.20;;;;;;;5.82;40.68;95691.48;806207;73;26226;-80
2022/03/22 02:31:39;;;;;;;21.45;15.45;;;;;;;5.83;40.63;95691.23;806631;73;26151;-79
2022/03/22 02:32:54;;;;;;;24.90;16.23;;;;;;;5.81;40.56;95693.27;785691;75;26323;-80
2022/03/22 02:34:03;;;;;;;27.93;16.42;;;;;;;5.80;40.60;95694.30;787244;75;26281;-81
2022/03/22 02:35:09;;;;;;;21.95;16.62;;;;;;;5.80;40.69;95690.40;785566;75;26629;-80
2022/03/22 02:36:14;;;;;;;22.52;15.40;;;;;;;5.81;40.77;95689.36;785330;75;26313;-80
2022/03/22 02:37:23;;;;;;;22.52;15.70;;;;;;;5.82;40.83;95691.48;785187;75;26309;-80
2022/03/22 02:38:30;;;;;;;25.05;16.05;;;;;;;5.81;40.86;95684.16;785405;75;26338;-80
2022/03/22 02:42:54;;;;;;;24.15;15.50;;;;;;;5.79;40.91;95685.41;807827;72;26298;-80
2022/03/22 02:43:56;;;;;;;19.27;14.70;;;;;;;5.78;40.74;95686.44;806777;72;26219;-80
2022/03/22 02:44:59;;;;;;;21.25;13.83;;;;;;;5.77;40.62;95687.45;808490;73;26779;-80
2022/03/22 02:46:05;;;;;;;21.87;15.05;;;;;;;5.78;40.54;95685.92;808509;73;26290;-81
2022/03/22 02:47:10;;;;;;;24.37;14.20;;;;;;;5.77;40.40;95688.75;808744;73;26658;-81
2022/03/22 02:48:15;;;;;;;21.80;15.50;;;;;;;5.76;40.40;95685.36;809079;73;26253;-81
2022/03/22 02:51:42;;;;;;;22.30;15.55;;;;;;;5.74;40.66;95686.61;809193;73;26226;-81
2022/03/22 02:52:48;;;;;;;20.70;14.50;;;;;;;5.74;40.68;95690.00;805853;73;26268;-80
2022/03/22 02:53:56;;;;;;;21.60;15.00;;;;;;;5.73;40.71;95696.73;805703;73;26340;-79
2022/03/22 02:55:01;;;;;;;20.60;14.93;;;;;;;5.71;40.74;95689.14;805909;73;26281;-81
2022/03/22 02:56:06;;;;;;;21.97;15.13;;;;;;;5.70;40.68;95690.69;806563;73;26274;-81
2022/03/22 02:57:11;;;;;;;20.62;14.75;;;;;;;5.67;40.69;95690.61;806218;73;26239;-80
2022/03/22 02:58:17;;;;;;;21.85;14.15;;;;;;;5.68;40.75;95696.12;806431;73;26230;-80
2022/03/22 03:03:00;;;;;;;22.90;14.05;;;;;;;5.65;40.80;95700.46;805657;72;26666;-80
2022/03/22 03:06:19;;;;;;;22.17;13.70;;;;;;;5.59;40.88;95702.15;812585;71;26336;-79
2022/03/22 03:07:25;;;;;;;20.82;14.10;;;;;;;5.55;40.87;95701.53;821681;72;26220;-78
2022/03/22 03:08:31;;;;;;;20.92;14.78;;;;;;;5.56;40.91;95707.04;821319;72;26689;-79
2022/03/22 03:11:50;;;;;;;22.27;14.90;;;;;;;5.53;41.02;95698.36;793415;72;26231;-80
2022/03/22 03:13:03;;;;;;;22.05;15.00;;;;;;;5.48;41.13;95702.16;792888;74;26689;-79
2022/03/22 03:15:31;;;;;;;23.57;15.98;;;;;;;5.45;41.36;95707.29;792966;75;26223;-80
2022/03/22 03:16:35;;;;;;;23.98;16.82;;;;;;;5.42;41.50;95705.94;792816;75;26290;-81
2022/03/22 03:17:40;;;;;;;23.87;16.25;;;;;;;5.40;41.51;95700.68;792855;75;26228;-80
2022/03/22 03:18:46;;;;;;;28.40;16.55;;;;;;;5.38;41.59;95699.59;792934;75;26228;-79
2022/03/22 03:22:07;;;;;;;26.30;16.55;;;;;;;5.35;41.73;95692.25;769191;76;26279;-81
2022/03/22 03:23:15;;;;;;;27.00;16.82;;;;;;;5.30;41.69;95702.52;782669;76;26248;-82
2022/03/22 03:24:20;;;;;;;22.93;16.73;;;;;;;5.27;41.77;95696.97;783027;76;26244;-81
2022/03/22 03:25:26;;;;;;;29.12;17.95;;;;;;;5.24;41.87;95694.31;782828;76;26310;-80
2022/03/22 03:26:30;;;;;;;27.45;17.75;;;;;;;5.22;41.94;95696.34;782246;76;26639;-80
2022/03/22 03:27:33;;;;;;;30.17;17.17;;;;;;;5.20;41.99;95691.88;781278;76;26252;-81
2022/03/22 03:28:39;;;;;;;25.92;16.40;;;;;;;5.17;41.82;95695.72;781263;76;26326;-80
2022/03/22 03:32:56;;;;;;;30.23;17.10;;;;;;;5.12;42.13;95696.10;741382;79;26410;-80
2022/03/22 03:34:02;;;;;;;26.25;17.02;;;;;;;5.10;42.22;95694.23;742060;80;26284;-81
2022/03/22 03:35:09;;;;;;;26.85;16.95;;;;;;;5.07;42.28;95687.67;742024;80;26283;-81
2022/03/22 03:36:13;;;;;;;29.07;17.40;;;;;;;5.09;42.29;95685.64;795062;74;26227;-80
2022/03/22 03:37:21;;;;;;;27.40;16.20;;;;;;;5.08;42.30;95689.24;796864;74;26238;-79
2022/03/22 03:38:25;;;;;;;22.05;15.80;;;;;;;5.08;42.23;95681.95;797135;74;26293;-79
2022/03/22 03:41:56;;;;;;;22.30;14.60;;;;;;;5.07;41.80;95685.56;768601;73;26226;-80
2022/03/22 03:43:01;;;;;;;22.10;14.55;;;;;;;5.03;41.67;95698.23;761392;78;26732;-80
2022/03/22 03:47:07;;;;;;;20.00;13.58;;;;;;;4.87;42.24;95692.37;775390;76;26276;-78
2022/03/22 03:57:01;;;;;;;21.45;14.20;;;;;;;4.86;41.87;95694.16;781279;76;26160;-80
2022/03/22 03:58:09;;;;;;;19.87;13.80;;;;;;;4.84;41.98;95694.09;773551;76;26672;-79
2022/03/22 04:01:18;;;;;;;22.70;13.43;;;;;;;4.83;42.11;95686.03;784108;75;26218;-78
2022/03/22 04:02:24;;;;;;;19.17;13.53;;;;;;;4.81;42.01;95687.54;762267;77;26685;-78
2022/03/22 04:03:30;;;;;;;19.17;13.43;;;;;;;4.82;41.99;95687.81;762883;78;24736;-79
2022/03/22 04:04:40;;;;;;;18.00;13.32;;;;;;;4.81;42.06;95690.14;785758;75;24622;-77
2022/03/22 04:05:41;;;;;;;18.25;12.73;;;;;;;4.83;42.15;95688.63;784925;75;26254;-80
2022/03/22 04:06:47;;;;;;;21.50;13.83;;;;;;;4.84;42.22;95690.20;787399;75;26230;-80
2022/03/22 04:07:51;;;;;;;22.42;13.88;;;;;;;4.84;42.13;95694.09;787053;75;26238;-78
2022/03/22 04:11:04;;;;;;;21.48;13.50;;;;;;;4.84;42.07;95689.69;783929;70;26323;-76
2022/03/22 04:12:08;;;;;;;20.70;13.93;;;;;;;4.84;42.19;95692.28;819812;72;26311;-78
2022/03/22 04:13:12;;;;;;;19.30;13.03;;;;;;;4.84;42.33;95693.58;819962;72;26210;-80
2022/03/22 04:14:20;;;;;;;21.77;14.30;;;;;;;4.85;42.43;95691.28;819413;72;26287;-81
2022/03/22 04:15:23;;;;;;;24.23;13.95;;;;;;;4.85;42.48;95701.69;821048;72;26214;-77
2022/03/22 04:16:27;;;;;;;23.00;15.18;;;;;;;4.85;42.51;95697.00;821765;72;26263;-79
2022/03/22 04:17:35;;;;;;;19.05;14.18;;;;;;;4.84;42.54;95690.98;820391;72;26217;-77
2022/03/22 04:21:37;;;;;;;18.52;13.43;;;;;;;4.84;42.51;95694.09;820798;72;26188;-81
2022/03/22 04:22:42;;;;;;;17.25;12.63;;;;;;;4.81;42.25;95696.13;803550;73;26221;-78
2022/03/22 04:23:46;;;;;;;23.07;13.32;;;;;;;4.78;42.37;95697.85;801292;74;26237;-77
2022/03/22 04:24:50;;;;;;;19.45;13.68;;;;;;;4.78;42.36;95697.06;801314;74;26670;-78
2022/03/22 04:25:55;;;;;;;23.40;13.35;;;;;;;4.80;42.36;95695.04;801169;74;26283;-79
2022/03/22 04:32:41;;;;;;;17.87;13.58;;;;;;;4.80;42.28;95693.73;801205;74;26220;-79
2022/03/22 04:32:58;;;;;;;17.65;13.45;;;;;;;4.82;42.29;95693.01;808710;73;24670;-78
2022/03/22 04:34:05;;;;;;;18.40;13.70;;;;;;;4.82;42.40;95699.51;810572;72;26298;-76
2022/03/22 04:35:27;;;;;;;20.40;13.75;;;;;;;4.81;42.41;95702.63;810369;73;26277;-77
2022/03/22 04:36:29;;;;;;;20.57;13.40;;;;;;;4.84;42.41;95699.30;805328;73;26235;-78
2022/03/22 04:37:36;;;;;;;19.70;13.03;;;;;;;4.85;42.44;95698.30;810572;73;26308;-77
2022/03/22 04:41:04;;;;;;;17.23;12.10;;;;;;;4.88;42.32;95693.42;810500;73;26593;-77
2022/03/22 04:42:10;;;;;;;17.57;12.73;;;;;;;4.91;41.75;95687.02;757925;78;26418;-77
2022/03/22 04:43:17;;;;;;;16.70;12.15;;;;;;;4.92;41.49;95684.16;752916;78;26328;-78
2022/03/22 04:56:46;;;;;;;16.45;12.80;;;;;;;6.50;39.55;95698.34;765070;77;26315;-76
2022/03/22 04:57:51;;;;;;;22.60;13.13;;;;;;;6.75;39.12;95691.50;765198;77;26283;-76
2022/03/22 05:00:49;;;;;;;16.75;12.88;;;;;;;7.04;38.60;95688.91;766636;74;26807;-76
2022/03/22 05:01:57;;;;;;;20.23;14.70;;;;;;;7.12;38.38;95689.82;772902;75;26300;-76
2022/03/22 05:03:09;;;;;;;19.52;14.20;;;;;;;7.11;38.27;95686.40;772494;77;26393;-76
2022/03/22 05:04:13;;;;;;;18.00;14.40;;;;;;;7.09;38.17;95689.76;777482;76;26230;-77
2022/03/22 05:06:25;;;;;;;23.02;14.47;;;;;;;7.08;38.08;95693.93;778355;76;26668;-77
2022/03/22 05:06:26;;;;;;;25.50;15.58;;;;;;;7.05;38.03;95693.08;774918;76;26288;-75
2022/03/22 05:07:31;;;;;;;19.98;15.10;;;;;;;7.01;38.04;95689.66;778370;76;26234;-74
2022/03/22 05:08:35;;;;;;;19.27;14.93;;;;;;;6.98;38.09;95692.72;778292;76;26233;-76
2022/03/22 05:09:41;;;;;;;18.92;14.18;;;;;;;7.03;38.10;95690.70;778037;76;26238;-77
2022/03/22 05:10:47;;;;;;;22.25;14.70;;;;;;;7.11;38.02;95690.31;780433;76;26287;-75
2022/03/22 05:11:54;;;;;;;21.10;14.87;;;;;;;7.27;37.93;95689.27;776081;76;26232;-76
2022/03/22 05:12:59;;;;;;;18.87;14.35;;;;;;;7.43;37.81;95690.57;778965;76;26230;-76
2022/03/22 05:14:03;;;;;;;18.95;14.65;;;;;;;7.62;37.68;95695.06;778826;76;26295;-75
2022/03/22 05:15:09;;;;;;;25.45;15.25;;;;;;;7.82;37.34;95692.45;777942;76;26728;-75
2022/03/22 05:16:18;;;;;;;19.27;14.13;;;;;;;8.02;37.07;95690.11;777994;76;26300;-77
2022/03/22 05:17:23;;;;;;;20.23;15.25;;;;;;;8.23;36.75;95691.67;778209;76;26293;-76
2022/03/22 05:21:04;;;;;;;24.18;16.27;;;;;;;8.65;36.61;95695.61;778110;76;26176;-76
2022/03/22 05:22:09;;;;;;;28.27;17.70;;;;;;;9.01;36.27;95694.93;794655;74;26220;-77
2022/03/22 05:23:13;;;;;;;28.35;18.40;;;;;;;9.25;36.15;95690.70;794616;74;26224;-74
2022/03/22 05:24:17;;;;;;;23.73;17.80;;;;;;;9.42;35.94;95693.19;794667;74;26220;-75
2022/03/22 05:25:21;;;;;;;26.97;17.82;;;;;;;9.59;35.78;95697.78;794642;74;26224;-75
2022/03/22 05:26:28;;;;;;;28.47;18.30;;;;;;;9.75;35.61;95696.56;794591;74;26646;-75
2022/03/22 05:27:32;;;;;;;27.13;17.90;;;;;;;9.90;35.15;95699.30;794674;74;26225;-77
2022/03/22 05:30:51;;;;;;;21.45;16.35;;;;;;;10.18;34.30;95689.50;796471;74;26344;-74
2022/03/22 05:31:56;;;;;;;24.75;17.82;;;;;;;10.42;33.86;95692.49;799786;74;26248;-74
2022/03/22 05:33:03;;;;;;;24.57;17.30;;;;;;;10.51;33.12;95686.25;800055;74;26225;-76
2022/03/22 05:34:07;;;;;;;27.70;17.50;;;;;;;10.61;33.03;95691.00;799787;74;26287;-79
2022/03/22 05:39:49;;;;;;;23.38;17.98;;;;;;;11.22;32.49;95696.13;757400;73;26673;-77
2022/03/22 05:40:56;;;;;;;23.87;18.30;;;;;;;11.43;32.00;95689.03;794695;75;26207;-76
2022/03/22 05:42:04;;;;;;;24.00;17.10;;;;;;;11.54;31.83;95685.37;803581;74;26289;-76
2022/03/22 05:43:08;;;;;;;25.72;17.05;;;;;;;11.70;31.89;95688.78;788057;75;26306;-75
2022/03/22 05:44:16;;;;;;;25.48;18.30;;;;;;;11.83;31.58;95688.75;789778;74;26741;-76
2022/03/22 05:45:23;;;;;;;27.27;18.92;;;;;;;11.96;31.36;95685.62;802289;73;26204;-77
2022/03/22 05:46:31;;;;;;;25.88;17.30;;;;;;;12.09;30.98;95683.48;802879;74;26231;-78
2022/03/22 05:47:37;;;;;;;25.20;19.37;;;;;;;12.23;30.88;95687.13;802429;73;26305;-77
2022/03/22 05:51:11;;;;;;;19.85;16.05;;;;;;;12.50;30.33;95676.22;793564;73;26595;-76
2022/03/22 05:52:18;;;;;;;22.70;16.97;;;;;;;12.76;29.53;95675.58;791088;75;26253;-76
2022/03/22 05:53:23;;;;;;;24.10;15.40;;;;;;;12.92;28.89;95680.23;790275;75;26366;-79
2022/03/22 05:54:30;;;;;;;20.60;15.85;;;;;;;13.05;28.65;95678.05;778536;76;26265;-77
2022/03/22 05:55:33;;;;;;;20.00;14.65;;;;;;;13.15;28.37;95676.66;779541;75;26412;-76
2022/03/22 05:56:43;;;;;;;20.95;14.80;;;;;;;13.29;27.96;95675.52;789758;75;26714;-77
2022/03/22 05:57:47;;;;;;;19.80;14.47;;;;;;;13.35;27.57;95676.54;789695;75;26295;-78
2022/03/22 06:01:00;;;;;;;21.62;14.90;;;;;;;13.44;27.24;95678.05;756845;76;26352;-77
2022/03/22 06:02:06;;;;;;;21.60;13.83;;;;;;;13.45;26.97;95673.04;768658;77;26212;-76
2022/03/22 06:03:11;;;;;;;17.35;13.60;;;;;;;13.43;26.82;95676.48;768701;77;26195;-78
2022/03/22 06:04:17;;;;;;;16.60;13.62;;;;;;;13.40;26.82;95677.02;775212;76;26248;-75
2022/03/22 06:05:22;;;;;;;19.02;14.98;;;;;;;13.35;26.77;95676.54;776044;76;26225;-76
2022/03/22 06:06:27;;;;;;;18.20;15.00;;;;;;;13.29;26.86;95676.33;781034;76;26297;-76
2022/03/22 06:07:31;;;;;;;22.50;16.02;;;;;;;13.22;26.96;95676.61;778759;76;26251;-78
2022/03/22 06:11:13;;;;;;;24.20;14.58;;;;;;;13.09;27.07;95677.22;773107;74;26293;-76
2022/03/22 06:12:19;;;;;;;17.05;13.75;;;;;;;12.97;27.21;95680.72;775867;76;26218;-79
2022/03/22 06:13:26;;;;;;;19.48;14.90;;;;;;;12.83;26.78;95680.53;780591;76;26289;-78
2022/03/22 06:14:31;;;;;;;18.17;14.35;;;;;;;12.75;26.75;95680.59;777035;76;26287;-78
2022/03/22 06:15:37;;;;;;;16.35;13.50;;;;;;;12.73;26.57;95676.12;777059;76;26769;-79
2022/03/22 06:16:42;;;;;;;21.00;14.35;;;;;;;12.74;26.52;95667.69;775715;76;26206;-76
2022/03/22 06:17:53;;;;;;;16.45;14.13;;;;;;;12.80;26.58;95676.60;777822;76;26656;-77
2022/03/22 06:21:02;;;;;;;18.80;14.20;;;;;;;13.00;26.58;95678.87;759147;77;26728;-78
2022/03/22 06:22:07;;;;;;;18.05;13.20;;;;;;;13.26;26.37;95674.73;758210;78;26334;-78
2022/03/22 06:23:15;;;;;;;17.17;13.50;;;;;;;13.28;26.19;95667.33;744730;79;26712;-78
2022/03/22 06:32:22;;;;;;;23.87;16.35;;;;;;;14.67;25.92;95670.22;793701;72;24313;-77
2022/03/22 06:33:28;;;;;;;22.17;15.98;;;;;;;14.91;26.02;95675.99;785750;75;26242;-79
2022/03/22 06:34:32;;;;;;;19.57;16.30;;;;;;;15.17;25.65;95674.55;786343;75;26235;-76
2022/03/22 06:35:36;;;;;;;21.23;15.78;;;;;;;15.34;25.40;95671.37;786095;75;26235;-78
2022/03/22 06:36:40;;;;;;;20.88;16.23;;;;;;;15.49;25.26;95674.34;785935;75;26331;-76
2022/03/22 06:37:48;;;;;;;22.95;17.02;;;;;;;15.67;25.12;95667.95;785939;75;26239;-76
2022/03/22 06:41:08;;;;;;;24.25;16.25;;;;;;;15.99;24.38;95671.91;814001;72;26640;-79
2022/03/22 06:42:15;;;;;;;19.70;15.83;;;;;;;16.30;24.60;95666.58;793723;74;26362;-77
2022/03/22 06:43:20;;;;;;;21.45;16.17;;;;;;;16.50;24.57;95669.38;793050;75;26229;-77
2022/03/22 06:44:31;;;;;;;21.07;15.38;;;;;;;16.68;24.38;95670.34;793160;75;26227;-78
2022/03/22 06:45:34;;;;;;;20.77;15.08;;;;;;;16.85;24.05;95673.20;792799;74;26299;-78
2022/03/22 06:46:40;;;;;;;19.85;14.68;;;;;;;17.03;23.78;95667.48;793077;75;26228;-77
2022/03/22 06:47:48;;;;;;;19.48;15.88;;;;;;;17.18;23.56;95669.80;793152;75;26234;-76
2022/03/22 06:51:32;;;;;;;16.37;13.80;;;;;;;17.51;23.15;95662.92;793337;75;26177;-78
2022/03/22 06:52:43;;;;;;;19.75;14.60;;;;;;;17.72;22.71;95657.11;773856;76;26283;-74
2022/03/22 06:53:56;;;;;;;17.62;13.95;;;;;;;17.81;22.18;95662.72;773724;76;26672;-76
2022/03/22 06:54:59;;;;;;;17.82;14.47;;;;;;;17.81;21.95;95662.72;773734;75;26306;-73
2022/03/22 06:56:05;;;;;;;16.45;13.50;;;;;;;17.79;21.82;95665.44;773761;76;26270;-76
2022/03/22 06:57:14;;;;;;;16.00;14.05;;;;;;;17.82;21.82;95666.14;773662;76;26228;-76
2022/03/22 07:00:31;;;;;;;17.80;13.65;;;;;;;17.87;21.48;95666.61;791604;72;26804;-78
2022/03/22 07:01:47;;;;;;;17.17;14.85;;;;;;;17.96;21.83;95662.92;775002;75;26350;-77
2022/03/22 07:03:02;;;;;;;17.85;13.45;;;;;;;17.98;21.82;95667.90;775186;75;26233;-79
2022/03/22 07:04:09;;;;;;;15.93;14.23;;;;;;;17.93;21.84;95670.15;775805;76;26230;-79
2022/03/22 07:05:24;;;;;;;16.77;14.45;;;;;;;17.90;21.87;95664.11;775587;76;26327;-80
2022/03/22 07:07:10;;;;;;;16.60;13.93;;;;;;;17.91;21.87;95663.59;770782;76;26280;-81
2022/03/22 07:08:27;;;;;;;15.55;13.18;;;;;;;17.97;21.84;95665.02;768047;76;26333;-78
2022/03/22 07:09:34;;;;;;;17.73;13.98;;;;;;;18.10;21.81;95663.34;766932;75;26255;-79
2022/03/22 07:14:27;;;;;;;15.20;12.37;;;;;;;18.35;21.35;95669.31;779096;73;26332;-76
2022/03/22 07:15:41;;;;;;;15.58;13.90;;;;;;;18.34;21.31;95665.08;778866;76;26237;-78
2022/03/22 07:16:49;;;;;;;14.95;13.35;;;;;;;18.39;21.27;95669.48;779022;76;26275;-79
2022/03/22 07:26:12;;;;;;;15.28;12.88;;;;;;;17.93;21.34;95659.53;764495;77;26574;-75
2022/03/22 07:40:43;;;;;;;16.30;14.25;;;;;;;17.35;21.72;95650.56;777587;74;26273;-78
2022/03/22 07:41:54;;;;;;;16.55;14.05;;;;;;;17.35;21.80;95650.56;771080;77;26309;-76
2022/03/22 07:43:06;;;;;;;20.17;14.65;;;;;;;17.34;21.77;95650.89;792869;74;26223;-78
2022/03/22 07:44:30;;;;;;;17.17;14.55;;;;;;;17.37;21.95;95648.94;788323;75;26300;-77
2022/03/22 07:45:43;;;;;;;16.45;14.15;;;;;;;17.46;21.91;95648.47;772151;76;26296;-81
2022/03/22 07:53:42;;;;;;;18.07;15.05;;;;;;;17.72;21.88;95642.52;788095;75;26291;-77
2022/03/22 07:55:10;;;;;;;16.93;14.55;;;;;;;17.66;22.32;95641.08;775864;76;26238;-76
2022/03/22 07:56:30;;;;;;;16.95;14.80;;;;;;;17.59;22.66;95640.96;787092;75;26231;-75
2022/03/22 08:13:06;;;;;;;18.60;13.83;;;;;;;16.17;23.94;95647.75;775076;75;26243;-78
2022/03/22 08:14:32;;;;;;;18.10;13.85;;;;;;;16.04;24.27;95645.90;775583;76;26732;-76
2022/03/22 08:39:59;;;;;;;18.25;14.43;;;;;;;12.81;29.23;95644.46;778937;73;26331;-76
2022/03/22 08:41:07;;;;;;;16.50;13.38;;;;;;;12.72;29.38;95650.06;776803;74;26245;-78
2022/03/22 08:42:24;;;;;;;17.30;13.75;;;;;;;12.66;29.47;95651.14;780574;76;26236;-77
2022/03/22 08:43:32;;;;;;;17.00;13.55;;;;;;;12.50;29.67;95648.58;774871;75;26791;-79
2022/03/22 08:44:48;;;;;;;19.87;13.83;;;;;;;12.40;29.90;95654.67;775358;76;26227;-76
2022/03/22 08:46:14;;;;;;;16.00;13.28;;;;;;;12.32;29.95;95653.14;761005;78;26263;-77
2022/03/22 08:52:02;;;;;;;17.60;13.08;;;;;;;11.70;31.16;95648.02;778755;76;26635;-76
2022/03/22 08:53:32;;;;;;;19.23;13.65;;;;;;;11.48;31.63;95647.00;760462;77;26768;-79
2022/03/22 08:54:42;;;;;;;18.73;14.05;;;;;;;11.34;31.98;95647.27;765701;77;26348;-77
2022/03/22 09:06:07;;;;;;;18.55;13.30;;;;;;;10.91;32.74;95642.75;750957;78;26347;-78
2022/03/22 09:06:21;;;;;;;19.62;13.93;;;;;;;10.90;33.20;95631.47;759086;78;26240;-79
2022/03/22 09:09:44;;;;;;;18.37;13.20;;;;;;;10.81;33.54;95635.67;773454;76;26731;-78
2022/03/22 09:10:56;;;;;;;14.85;12.73;;;;;;;10.71;33.68;95633.81;774570;76;26238;-79
2022/03/22 09:12:05;;;;;;;17.30;13.40;;;;;;;10.66;33.79;95626.45;775705;76;26299;-78
2022/03/22 09:13:18;;;;;;;16.90;14.45;;;;;;;10.65;33.86;95627.52;775270;75;26686;-79
2022/03/22 09:14:34;;;;;;;17.90;13.93;;;;;;;10.62;33.95;95627.48;775743;75;26311;-76
2022/03/22 09:15:48;;;;;;;20.10;13.90;;;;;;;10.57;34.00;95629.58;777307;76;26253;-76
2022/03/22 09:21:04;;;;;;;16.80;13.48;;;;;;;10.42;34.26;95627.71;761679;78;26396;-78
2022/03/22 09:22:32;;;;;;;15.08;12.35;;;;;;;10.40;34.46;95625.87;757458;78;26225;-79
2022/03/22 09:23:58;;;;;;;18.45;12.70;;;;;;;10.39;34.50;95625.59;740107;80;26277;-77